Current Weather

Tiruchirappalli

Tiruchirappalli, India (VOTR)

Report from: Thursday, April 25, 2024 10:30 AM IST
Current time: Thursday, April 25, 2024 11:03 AM IST

Nearby weather – Weather history – Daily summaries
Weather forecast

Temperature37.0°C (98.6°F)
Heat index47.7°C (117.9°F)
Dew point26.0°C (78.8°F)
Winds 3 kts (1.5 m/s, 3.5 mph) Southeast (140°)
Visibility3.7 mi. (6 km)
Clouds Scattered clouds 1,600 ft. (488 m)
Altimeter29.77 in.Hg (1008 mB)
Relative humidity54 %
Density altitude3,108 ft. (947 m)
Remarks No significant changes expected in the next two hours
Flight conditions Marginal Visual Meteorological Conditions
Raw dataVOTR 250500Z 14003KT 6000 SCT016 37/26 Q1008 NOSIG
An error has occurred. This application may no longer respond until reloaded. Reload 🗙